Time;durP1;ratioP1;P1;durP2;ratioP2;P2;SDS_P1;SDS_P2;PMS_P1;PMS_P2;Temp;Humidity;BMP_temperature;BMP_pressure;BME280_temperature;BME280_humidity;BME280_pressure;Samples;Min_cycle;Max_cycle;Signal;HPM_P1;HPM_P2
2021/05/17 00:01:33;;;;;;;2.00;0.65;;;;;;;9.72;87.79;97875.97;5043682;28;20295;-79
2021/05/17 00:04:07;;;;;;;0.70;0.50;;;;;;;9.73;87.04;97877.66;5017798;28;20057;-79
2021/05/17 00:06:33;;;;;;;1.17;0.60;;;;;;;9.73;87.51;97862.19;5039777;28;20568;-78
2021/05/17 00:09:05;;;;;;;0.85;0.50;;;;;;;9.74;87.54;97861.16;5040046;28;20046;-79
2021/05/17 00:11:31;;;;;;;0.63;0.63;;;;;;;9.78;87.55;97885.16;5035320;28;20049;-78
2021/05/17 00:13:58;;;;;;;3.65;0.60;;;;;;;9.54;87.82;97863.91;5037761;28;20052;-79
2021/05/17 00:16:26;;;;;;;1.45;0.60;;;;;;;9.65;87.83;97861.56;5032678;28;20054;-79
2021/05/17 00:19:04;;;;;;;2.13;0.50;;;;;;;9.70;87.63;97886.22;5014619;28;20486;-79
2021/05/17 00:21:47;;;;;;;1.63;0.60;;;;;;;9.60;87.83;97877.66;5033280;28;20132;-79
2021/05/17 00:24:15;;;;;;;0.50;0.50;;;;;;;9.46;88.30;97876.84;5043749;28;20045;-79
2021/05/17 00:26:41;;;;;;;2.15;0.55;;;;;;;9.50;88.23;97876.22;5036385;28;20053;-79
2021/05/17 00:29:09;;;;;;;1.08;0.65;;;;;;;9.65;87.93;97880.56;5036494;28;20064;-79
2021/05/17 00:31:37;;;;;;;1.40;0.70;;;;;;;9.72;87.76;97881.41;5039271;28;20056;-79
2021/05/17 00:34:06;;;;;;;0.90;0.55;;;;;;;9.64;87.49;97873.50;5025671;28;20383;-80
2021/05/17 00:36:33;;;;;;;1.38;0.70;;;;;;;9.76;86.72;97882.66;5033875;28;20092;-79
2021/05/17 00:39:01;;;;;;;4.03;1.25;;;;;;;9.64;87.50;97876.22;5043050;28;20049;-79
2021/05/17 00:41:28;;;;;;;0.52;0.52;;;;;;;9.75;87.08;97883.69;5047254;28;20091;-79
2021/05/17 00:43:56;;;;;;;0.80;0.70;;;;;;;9.79;87.17;97882.22;5038433;28;20123;-79
2021/05/17 00:46:24;;;;;;;2.85;0.65;;;;;;;9.62;87.15;97881.00;5038035;28;20107;-79
2021/05/17 00:48:52;;;;;;;1.15;0.70;;;;;;;9.60;86.61;97875.78;5034971;28;20046;-79
2021/05/17 00:51:18;;;;;;;2.08;0.82;;;;;;;9.54;86.80;97884.75;5039679;28;20049;-79
2021/05/17 00:53:46;;;;;;;1.92;0.60;;;;;;;9.60;86.71;97878.50;5041367;28;20076;-79
2021/05/17 00:56:13;;;;;;;1.00;0.75;;;;;;;9.51;86.91;97879.75;5045893;28;20060;-79
2021/05/17 00:58:39;;;;;;;3.13;1.00;;;;;;;9.49;87.28;97884.56;5035310;28;20045;-79
2021/05/17 01:01:07;;;;;;;2.33;0.88;;;;;;;9.50;87.58;97875.34;5036937;28;20071;-79
2021/05/17 01:03:34;;;;;;;1.85;0.80;;;;;;;9.48;87.47;97880.19;5036041;28;20068;-79
2021/05/17 01:06:03;;;;;;;0.82;0.80;;;;;;;9.58;86.86;97894.16;5034654;28;20100;-79
2021/05/17 01:08:36;;;;;;;2.00;0.55;;;;;;;9.48;86.50;97885.59;5040744;28;20052;-79
2021/05/17 01:11:04;;;;;;;2.03;1.00;;;;;;;9.48;86.14;97886.44;5036906;28;20044;-78
2021/05/17 01:13:31;;;;;;;3.17;0.68;;;;;;;9.56;86.70;97891.66;5049655;28;20052;-78
2021/05/17 01:15:59;;;;;;;2.92;0.60;;;;;;;9.53;85.74;97883.09;5041160;28;20140;-78
2021/05/17 01:18:26;;;;;;;1.50;0.60;;;;;;;9.52;86.25;97897.72;5029161;28;20045;-78
2021/05/17 01:20:54;;;;;;;2.88;0.70;;;;;;;9.52;86.02;97895.81;5050541;28;20056;-78
2021/05/17 01:23:43;;;;;;;0.90;0.50;;;;;;;9.52;85.83;97890.41;5037458;28;20550;-78
2021/05/17 01:26:10;;;;;;;0.75;0.63;;;;;;;9.47;85.82;97895.63;5033738;28;20045;-78
2021/05/17 01:28:38;;;;;;;1.25;0.70;;;;;;;9.42;86.54;97884.56;5035797;28;20130;-78
2021/05/17 01:31:07;;;;;;;0.57;0.35;;;;;;;9.47;85.88;97873.94;5040051;28;20053;-78
2021/05/17 01:33:35;;;;;;;2.22;0.68;;;;;;;9.48;85.95;97883.72;5038607;28;20041;-78
2021/05/17 01:36:02;;;;;;;2.92;0.52;;;;;;;9.45;85.97;97877.88;5019174;28;20060;-79
2021/05/17 01:38:29;;;;;;;2.53;0.63;;;;;;;9.27;87.06;97873.06;5032301;28;20068;-78
2021/05/17 01:40:57;;;;;;;0.77;0.32;;;;;;;9.36;86.72;97890.81;5039511;28;20045;-78
2021/05/17 01:43:24;;;;;;;2.22;0.50;;;;;;;9.38;87.09;97884.16;5048219;28;20081;-78
2021/05/17 01:45:51;;;;;;;1.50;0.50;;;;;;;9.48;86.52;97889.13;5042627;28;20501;-78
2021/05/17 01:48:23;;;;;;;0.70;0.70;;;;;;;9.53;86.42;97889.34;5040861;28;20292;-78
2021/05/17 01:50:49;;;;;;;7.50;0.70;;;;;;;9.52;86.63;97889.56;5031916;28;20053;-78
2021/05/17 01:53:17;;;;;;;2.30;0.77;;;;;;;9.53;86.00;97891.25;5028581;28;20397;-78
2021/05/17 01:55:44;;;;;;;3.35;0.88;;;;;;;9.50;86.48;97886.22;5028028;28;20054;-78
2021/05/17 01:58:12;;;;;;;2.78;0.85;;;;;;;9.48;86.15;97894.56;5051752;28;20053;-78
2021/05/17 02:00:40;;;;;;;4.68;0.88;;;;;;;9.52;87.11;97893.09;5037813;28;20056;-78
2021/05/17 02:03:08;;;;;;;0.57;0.55;;;;;;;9.51;86.69;97888.72;5037844;28;20065;-78
2021/05/17 02:05:34;;;;;;;2.42;0.80;;;;;;;9.51;87.18;97896.03;5035668;28;20049;-78
2021/05/17 02:08:02;;;;;;;6.05;0.73;;;;;;;9.40;87.55;97886.66;5042808;28;20064;-78
2021/05/17 02:10:30;;;;;;;2.65;0.63;;;;;;;9.51;86.76;97894.13;5034669;28;20056;-78
2021/05/17 02:12:58;;;;;;;2.88;0.70;;;;;;;9.53;87.50;97899.38;5037400;28;20076;-79
2021/05/17 02:15:25;;;;;;;0.80;0.68;;;;;;;9.43;87.64;97902.50;5033403;28;20080;-78
2021/05/17 02:18:02;;;;;;;0.70;0.70;;;;;;;9.35;87.75;97892.69;5035133;28;20054;-78
2021/05/17 02:20:31;;;;;;;2.45;0.60;;;;;;;9.44;87.94;97901.47;5038001;28;20107;-79
2021/05/17 02:22:58;;;;;;;2.15;0.63;;;;;;;9.44;88.20;97906.91;5045582;28;20136;-79
2021/05/17 02:25:25;;;;;;;1.70;0.77;;;;;;;9.42;87.97;97900.81;5031181;28;20075;-79
2021/05/17 02:27:52;;;;;;;5.38;0.82;;;;;;;9.37;88.14;97884.34;5036643;28;20060;-79
2021/05/17 02:30:21;;;;;;;3.78;0.70;;;;;;;9.38;88.39;97892.28;5033053;28;20050;-79
2021/05/17 02:32:48;;;;;;;2.45;0.60;;;;;;;9.34;88.28;97890.19;5036818;28;20045;-79
2021/05/17 02:35:15;;;;;;;2.50;0.93;;;;;;;9.48;87.92;97888.31;5039778;28;20532;-79
2021/05/17 02:37:41;;;;;;;3.15;0.70;;;;;;;9.44;87.88;97878.91;5037610;28;20045;-79
2021/05/17 02:40:16;;;;;;;1.08;0.60;;;;;;;9.42;87.96;97883.72;5030818;28;20498;-79
2021/05/17 02:42:47;;;;;;;2.40;0.52;;;;;;;9.41;87.07;97893.75;5032181;28;20452;-79
2021/05/17 02:45:13;;;;;;;;;;;;;;;9.51;88.02;97896.84;5044307;28;20061;-79
2021/05/17 02:47:41;;;;;;;3.88;0.70;;;;;;;9.43;87.91;97891.66;5036519;28;19928;-79
2021/05/17 02:50:11;;;;;;;2.65;0.70;;;;;;;9.55;88.02;97902.72;5032394;28;20560;-79
2021/05/17 02:52:38;;;;;;;0.63;0.50;;;;;;;9.57;87.88;97898.75;5033054;28;20046;-79
2021/05/17 02:55:06;;;;;;;2.40;0.50;;;;;;;9.51;88.42;97915.84;5020868;28;20045;-79
2021/05/17 02:57:40;;;;;;;0.73;0.40;;;;;;;9.35;88.26;97892.69;5035203;28;20045;-79
2021/05/17 03:00:15;;;;;;;3.42;0.70;;;;;;;9.39;87.88;97910.22;5050638;28;20082;-79
2021/05/17 03:02:53;;;;;;;1.02;0.50;;;;;;;9.47;87.83;97916.47;5035798;28;20060;-79
2021/05/17 03:05:27;;;;;;;1.27;0.82;;;;;;;9.48;87.49;97899.16;5032830;28;20383;-78
2021/05/17 03:14:37;;;;;;;2.78;0.60;;;;;;;9.52;86.47;97927.56;5030604;28;20107;-79
2021/05/17 03:17:04;;;;;;;0.57;0.57;;;;;;;9.51;86.90;97906.88;5017463;28;20137;-79
2021/05/17 03:19:32;;;;;;;1.23;0.70;;;;;;;9.56;87.04;97921.50;5026082;28;20057;-78
2021/05/17 03:22:00;;;;;;;4.82;0.80;;;;;;;9.48;87.83;97929.81;5038311;28;20417;-79
2021/05/17 03:24:31;;;;;;;4.57;0.70;;;;;;;9.60;86.61;97927.31;5034658;28;20079;-79
2021/05/17 03:27:08;;;;;;;0.98;0.70;;;;;;;9.49;87.62;97928.78;5041069;28;20049;-78
2021/05/17 03:29:35;;;;;;;0.63;0.63;;;;;;;9.52;86.99;97931.09;5045538;28;20048;-79
2021/05/17 03:32:01;;;;;;;1.25;0.60;;;;;;;9.32;85.55;97912.09;5037890;28;20080;-79
2021/05/17 03:34:28;;;;;;;3.38;1.60;;;;;;;9.36;84.76;97907.09;5042362;28;20490;-79
2021/05/17 03:36:55;;;;;;;3.08;0.55;;;;;;;9.48;85.38;97921.69;5041750;28;20045;-79
2021/05/17 03:39:21;;;;;;;1.13;0.95;;;;;;;9.45;85.58;97927.53;5034216;28;20060;-78
2021/05/17 03:41:47;;;;;;;0.93;0.60;;;;;;;9.46;85.16;97929.22;5039126;28;20037;-78
2021/05/17 03:44:13;;;;;;;2.80;1.23;;;;;;;9.59;85.56;97938.38;5036684;28;20053;-78
2021/05/17 03:46:40;;;;;;;2.70;0.40;;;;;;;9.55;85.32;97930.66;5037970;28;20114;-78
2021/05/17 03:49:06;;;;;;;0.73;0.60;;;;;;;9.60;84.87;97935.47;5050685;28;20052;-78
2021/05/17 03:51:32;;;;;;;0.80;0.50;;;;;;;9.54;85.32;97947.16;5037768;28;20401;-79
2021/05/17 03:53:59;;;;;;;0.80;0.35;;;;;;;9.56;84.68;97942.38;5039288;28;20083;-80
2021/05/17 03:56:25;;;;;;;0.77;0.60;;;;;;;9.49;84.10;97946.97;5046772;28;20508;-79
2021/05/17 03:58:52;;;;;;;1.98;0.30;;;;;;;9.49;83.91;97947.78;5029297;28;20057;-79
2021/05/17 04:01:18;;;;;;;1.60;0.40;;;;;;;9.55;84.03;97955.09;5053471;28;20056;-79
2021/05/17 04:03:44;;;;;;;1.05;0.52;;;;;;;9.49;83.97;97947.78;5039753;28;20049;-79
2021/05/17 04:06:15;;;;;;;0.73;0.50;;;;;;;9.57;82.79;97957.59;5039718;28;20050;-79
2021/05/17 04:14:07;;;;;;;0.65;0.60;;;;;;;9.65;84.60;97962.84;4991778;28;20045;-77
2021/05/17 04:16:33;;;;;;;1.55;0.60;;;;;;;9.63;83.08;97981.19;5050787;28;20271;-78
2021/05/17 04:19:00;;;;;;;3.00;0.50;;;;;;;9.65;82.64;97973.69;5034143;28;20049;-78
2021/05/17 04:21:26;;;;;;;0.45;0.38;;;;;;;9.64;84.49;97966.59;5044882;28;20094;-83
2021/05/17 04:23:52;;;;;;;0.25;0.22;;;;;;;9.70;83.25;97967.63;5056188;28;20052;-81
2021/05/17 04:29:20;;;;;;;0.90;0.40;;;;;;;9.59;83.13;97984.53;4971726;28;20530;-80
2021/05/17 04:31:47;;;;;;;1.02;0.45;;;;;;;9.49;83.92;97979.50;5021725;28;20054;-81
2021/05/17 04:34:13;;;;;;;1.13;0.50;;;;;;;9.42;83.91;97970.53;5040043;28;20049;-82
2021/05/17 04:36:40;;;;;;;3.22;0.45;;;;;;;9.53;82.57;97981.59;5046552;28;20386;-83
2021/05/17 04:39:06;;;;;;;3.00;0.70;;;;;;;9.42;82.58;97971.34;5044918;28;20323;-80
2021/05/17 04:41:34;;;;;;;4.40;1.38;;;;;;;9.53;83.26;97992.47;5041978;28;20080;-81
2021/05/17 04:44:35;;;;;;;3.40;0.85;;;;;;;9.62;84.68;97989.53;5039736;28;20493;-81
2021/05/17 04:49:51;;;;;;;1.85;0.50;;;;;;;9.62;82.72;97987.66;5047265;28;20056;-81
2021/05/17 04:52:17;;;;;;;3.38;0.70;;;;;;;9.60;83.16;97992.44;5044175;28;20065;-82
2021/05/17 04:55:13;;;;;;;0.30;0.30;;;;;;;9.60;84.10;97978.06;5033532;28;20041;-82
2021/05/17 04:57:43;;;;;;;0.55;0.30;;;;;;;9.79;83.23;98001.66;5037997;28;20076;-82
2021/05/17 05:00:12;;;;;;;1.05;0.50;;;;;;;9.78;83.62;98004.59;5041599;28;20048;-82
2021/05/17 05:02:59;;;;;;;2.47;0.60;;;;;;;9.73;83.23;97980.78;5049818;28;20125;-82
2021/05/17 05:09:33;;;;;;;;;;;;;;;;;;;;;
2021/05/17 05:15:15;;;;;;;1.35;0.52;;;;;;;9.82;81.75;97993.09;5035421;28;20421;-81
2021/05/17 05:17:41;;;;;;;1.92;0.80;;;;;;;9.91;80.67;98010.84;5041052;28;20049;-82
2021/05/17 05:20:09;;;;;;;0.60;0.35;;;;;;;9.90;81.91;98008.34;5051949;28;20052;-82
2021/05/17 05:22:37;;;;;;;1.63;0.32;;;;;;;9.81;81.38;98007.69;5049821;28;20063;-82
2021/05/17 05:28:26;;;;;;;1.90;0.43;;;;;;;9.94;79.50;98015.03;5006410;28;20042;-83
2021/05/17 05:31:05;;;;;;;0.25;0.20;;;;;;;10.02;78.98;98017.50;5032958;28;20056;-83
2021/05/17 05:33:31;;;;;;;0.50;0.28;;;;;;;9.96;78.90;98012.94;5031906;28;20057;-82
2021/05/17 05:35:58;;;;;;;0.52;0.40;;;;;;;9.90;80.01;98003.72;5032843;28;20524;-81
2021/05/17 05:38:32;;;;;;;0.63;0.50;;;;;;;10.04;79.14;98015.44;5039941;28;20192;-83
2021/05/17 05:41:00;;;;;;;3.75;0.70;;;;;;;10.24;78.03;98025.47;5045614;28;20052;-82
2021/05/17 05:43:26;;;;;;;2.10;0.40;;;;;;;10.52;75.86;98005.38;5029557;28;20096;-82
2021/05/17 05:45:53;;;;;;;0.43;0.30;;;;;;;10.82;75.74;98019.28;5032881;28;20092;-82
2021/05/17 05:48:20;;;;;;;0.55;0.40;;;;;;;10.71;74.79;98009.91;5041255;28;20178;-81
2021/05/17 05:50:46;;;;;;;0.90;0.40;;;;;;;10.78;74.65;98009.91;5052490;28;20061;-81
2021/05/17 05:53:14;;;;;;;1.73;0.57;;;;;;;10.82;75.83;98008.41;5050878;28;20056;-81
2021/05/17 05:55:40;;;;;;;0.88;0.40;;;;;;;10.90;76.91;98018.19;5025217;28;20104;-83
2021/05/17 05:58:07;;;;;;;0.60;0.60;;;;;;;10.65;75.35;98005.34;5024404;28;20107;-81
2021/05/17 06:00:35;;;;;;;2.63;0.60;;;;;;;10.62;76.18;98022.06;5031013;28;20064;-82
2021/05/17 06:03:01;;;;;;;0.60;0.50;;;;;;;10.58;76.63;98021.66;5032597;28;20045;-81
2021/05/17 06:05:29;;;;;;;2.35;0.65;;;;;;;10.59;76.19;98039.63;5025928;28;20589;-81
2021/05/17 06:07:56;;;;;;;1.05;0.40;;;;;;;10.52;75.94;98035.25;5032977;28;20107;-81
2021/05/17 06:10:23;;;;;;;1.35;0.40;;;;;;;10.32;75.55;98040.69;5045766;28;20072;-81
2021/05/17 06:13:09;;;;;;;1.20;0.65;;;;;;;10.28;75.93;98053.84;5035600;28;20053;-81
2021/05/17 06:15:39;;;;;;;2.67;0.43;;;;;;;10.08;75.19;98053.88;5037589;28;20535;-80
2021/05/17 06:18:14;;;;;;;1.15;0.22;;;;;;;10.02;76.06;98052.00;5038429;28;20045;-81
2021/05/17 06:20:42;;;;;;;1.98;0.35;;;;;;;10.06;75.75;98085.84;5046376;28;20152;-81
2021/05/17 06:23:11;;;;;;;0.43;0.20;;;;;;;9.85;74.00;98052.41;5019372;28;20046;-81
2021/05/17 06:25:56;;;;;;;;;;;;;;;;;;;;;
2021/05/17 06:28:24;;;;;;;1.08;0.50;;;;;;;10.04;75.44;98072.47;5036810;28;20390;-80
2021/05/17 06:31:34;;;;;;;0.55;0.30;;;;;;;9.96;74.92;98058.25;5024910;28;20440;-80
2021/05/17 06:34:04;;;;;;;0.22;0.20;;;;;;;10.16;74.88;98090.84;5000552;28;20468;-80
2021/05/17 06:40:17;;;;;;;0.77;0.40;;;;;;;10.05;76.51;98076.00;5007826;28;20045;-81
2021/05/17 06:42:44;;;;;;;1.05;0.20;;;;;;;10.19;75.93;98096.72;5044258;28;20057;-82
2021/05/17 06:45:22;;;;;;;0.75;0.32;;;;;;;10.20;76.35;98081.25;5039159;28;20046;-82
2021/05/17 06:47:51;;;;;;;2.83;0.65;;;;;;;10.36;76.36;98104.47;5032749;28;20137;-82
2021/05/17 06:50:18;;;;;;;0.30;0.30;;;;;;;10.33;75.45;98088.53;5028565;28;20057;-81
2021/05/17 06:52:46;;;;;;;2.08;0.65;;;;;;;10.60;76.71;98106.53;5030824;28;20045;-83
2021/05/17 06:55:21;;;;;;;1.33;0.50;;;;;;;10.59;75.53;98090.44;5048530;28;20114;-82
2021/05/17 06:58:02;;;;;;;6.18;1.95;;;;;;;10.92;75.43;98103.13;5029316;28;20465;-83
2021/05/17 07:00:30;;;;;;;2.95;0.57;;;;;;;11.07;74.71;98108.31;5033828;28;20045;-82
2021/05/17 07:02:58;;;;;;;0.22;0.22;;;;;;;11.15;74.56;98103.50;5051252;28;20057;-83
2021/05/17 07:05:28;;;;;;;2.38;0.60;;;;;;;11.52;74.20;98117.34;5029138;28;20052;-82
2021/05/17 07:11:33;;;;;;;;;;;;;;;11.52;72.16;98113.78;5053568;28;20123;-83
2021/05/17 07:13:34;;;;;;;1.75;0.63;;;;;;;11.20;73.52;98102.84;5029425;28;20128;-82
2021/05/17 07:16:00;;;;;;;2.25;0.40;;;;;;;11.34;74.18;98106.34;5038726;28;20056;-82
2021/05/17 07:18:26;;;;;;;2.70;0.80;;;;;;;11.28;73.28;98086.25;5052421;28;20377;-82
2021/05/17 07:23:39;;;;;;;2.42;0.50;;;;;;;11.19;73.82;98128.38;5032996;28;20060;-82
2021/05/17 07:26:07;;;;;;;2.45;0.63;;;;;;;11.30;73.04;98119.53;5032761;28;20059;-82
2021/05/17 07:28:34;;;;;;;0.88;0.40;;;;;;;11.06;71.06;98121.06;5030394;28;20124;-83
2021/05/17 07:31:03;;;;;;;0.43;0.30;;;;;;;10.85;71.13;98119.44;5042782;28;20052;-83
2021/05/17 07:33:30;;;;;;;3.85;0.50;;;;;;;10.70;71.08;98113.41;5021556;28;20478;-83
2021/05/17 07:35:56;;;;;;;1.08;0.57;;;;;;;10.88;71.00;98129.91;5022610;28;20523;-84
2021/05/17 07:38:27;;;;;;;3.35;0.57;;;;;;;11.00;71.02;98121.09;5035485;28;20045;-83
2021/05/17 07:44:28;;;;;;;1.23;0.50;;;;;;;11.39;69.70;98120.13;5028131;28;20183;-82
2021/05/17 07:49:56;;;;;;;1.63;0.40;;;;;;;11.78;67.75;98128.31;5017761;28;20331;-83
2021/05/17 07:52:32;;;;;;;0.98;0.65;;;;;;;11.92;67.25;98134.50;5010895;28;20084;-82
2021/05/17 07:55:02;;;;;;;4.03;0.40;;;;;;;12.09;67.95;98132.13;5021922;28;20378;-83
2021/05/17 08:04:04;;;;;;;1.63;0.50;;;;;;;11.37;67.84;98141.28;5014182;28;20069;-83
2021/05/17 08:06:31;;;;;;;1.08;0.40;;;;;;;11.20;67.89;98140.94;5031822;28;20073;-83
2021/05/17 08:08:57;;;;;;;1.70;0.55;;;;;;;11.02;68.21;98144.31;5031854;28;20058;-82
2021/05/17 08:11:23;;;;;;;1.73;0.60;;;;;;;11.11;69.29;98155.78;5031646;28;20057;-82
2021/05/17 08:13:50;;;;;;;1.10;0.40;;;;;;;11.05;68.03;98141.19;5015331;28;20128;-82
2021/05/17 08:16:17;;;;;;;1.48;0.60;;;;;;;11.09;68.09;98149.72;5048305;28;20045;-82
2021/05/17 08:18:45;;;;;;;1.42;0.60;;;;;;;11.01;67.06;98137.19;5038258;28;20513;-82
2021/05/17 08:21:11;;;;;;;0.88;0.30;;;;;;;11.26;67.95;98161.84;5032659;28;20061;-83
2021/05/17 08:23:41;;;;;;;5.30;0.40;;;;;;;11.08;67.33;98135.31;5027840;28;20393;-82
2021/05/17 08:26:11;;;;;;;1.05;0.65;;;;;;;11.10;66.82;98146.78;5043555;28;20045;-83
2021/05/17 08:28:40;;;;;;;0.65;0.32;;;;;;;11.15;66.48;98138.00;5027101;28;20058;-82
2021/05/17 08:31:08;;;;;;;3.40;0.70;;;;;;;11.20;67.40;98142.78;5038798;28;20049;-83
2021/05/17 08:33:35;;;;;;;0.90;0.40;;;;;;;11.66;66.90;98163.56;5031610;28;20052;-82
2021/05/17 08:36:01;;;;;;;0.90;0.55;;;;;;;11.92;65.27;98150.84;5037674;28;20050;-82
2021/05/17 08:38:28;;;;;;;0.70;0.47;;;;;;;12.44;64.92;98148.84;5014681;28;20053;-82
2021/05/17 08:40:54;;;;;;;6.03;1.38;;;;;;;12.87;63.23;98133.56;5014127;28;20057;-82
2021/05/17 08:43:20;;;;;;;1.88;0.68;;;;;;;12.87;63.75;98134.44;5040228;28;20052;-83
2021/05/17 08:45:47;;;;;;;0.52;0.32;;;;;;;13.06;61.96;98140.72;5033686;28;20053;-82
2021/05/17 08:48:29;;;;;;;1.23;0.82;;;;;;;13.53;59.19;98145.69;5047116;28;20057;-82
2021/05/17 08:50:56;;;;;;;2.80;0.60;;;;;;;13.90;60.62;98131.97;5053322;28;20045;-82
2021/05/17 08:53:23;;;;;;;7.72;0.90;;;;;;;13.79;60.30;98133.59;5047177;28;20052;-82
2021/05/17 08:55:49;;;;;;;2.55;0.40;;;;;;;13.78;58.94;98123.72;5053727;28;20068;-83
2021/05/17 08:58:19;;;;;;;3.10;1.00;;;;;;;13.89;58.62;98133.03;5047189;28;20099;-82
2021/05/17 09:00:46;;;;;;;;;;;;;;;14.11;59.19;98135.25;5046798;28;20053;-82
2021/05/17 09:03:12;;;;;;;1.83;0.63;;;;;;;14.40;60.39;98125.34;5051037;28;20007;-83
2021/05/17 09:05:39;;;;;;;2.63;0.50;;;;;;;13.87;56.68;98140.63;5033138;28;20128;-81
2021/05/17 09:08:06;;;;;;;3.25;0.73;;;;;;;13.83;61.00;98122.22;5016177;28;20049;-82
2021/05/17 09:10:35;;;;;;;7.22;1.08;;;;;;;13.70;58.37;98139.59;5026874;28;20455;-81
2021/05/17 09:13:07;;;;;;;8.40;1.00;;;;;;;13.56;58.98;98137.03;5045621;28;20126;-82
2021/05/17 09:15:37;;;;;;;5.05;0.75;;;;;;;13.18;59.30;98123.63;5031126;28;20046;-83
2021/05/17 09:18:06;;;;;;;0.65;0.40;;;;;;;13.24;60.50;98133.63;5039757;28;20042;-82
2021/05/17 09:20:37;;;;;;;7.10;0.65;;;;;;;13.04;61.17;98134.69;5032956;28;20057;-83
2021/05/17 09:23:12;;;;;;;2.00;0.60;;;;;;;13.14;62.55;98164.16;5041080;28;20187;-82
2021/05/17 09:25:40;;;;;;;2.08;0.80;;;;;;;12.73;67.66;98141.88;5032935;28;20493;-82
2021/05/17 09:28:11;;;;;;;0.85;0.47;;;;;;;12.51;67.28;98160.56;5047876;28;20053;-81
2021/05/17 09:30:48;;;;;;;5.82;0.85;;;;;;;12.70;70.13;98163.31;5013131;28;20448;-82
2021/05/17 09:33:16;;;;;;;3.97;0.70;;;;;;;12.90;70.51;98161.25;5046338;28;20049;-82
2021/05/17 09:35:44;;;;;;;2.75;0.60;;;;;;;12.96;68.04;98162.22;5036326;28;20107;-82
2021/05/17 09:41:38;;;;;;;3.47;0.50;;;;;;;13.51;66.30;98149.72;5020541;28;20530;-82
2021/05/17 09:44:05;;;;;;;5.90;1.85;;;;;;;13.90;65.35;98136.63;5032958;28;20060;-82
2021/05/17 09:46:55;;;;;;;1.98;0.77;;;;;;;14.13;63.44;98133.94;5035087;28;20269;-83
2021/05/17 09:49:28;;;;;;;1.88;0.30;;;;;;;14.57;63.34;98139.13;5020780;28;20341;-82
2021/05/17 09:52:07;;;;;;;3.58;0.80;;;;;;;14.51;58.58;98154.63;5026764;28;20482;-83
2021/05/17 09:55:03;;;;;;;5.00;0.85;;;;;;;14.17;59.58;98137.06;5019039;28;20049;-83
2021/05/17 09:57:34;;;;;;;0.50;0.38;;;;;;;14.21;60.60;98140.16;5017289;28;20038;-82
2021/05/17 10:00:10;;;;;;;1.15;0.50;;;;;;;14.30;57.38;98136.84;5030564;28;20106;-82
2021/05/17 10:02:40;;;;;;;2.90;0.55;;;;;;;14.69;58.33;98141.91;5031540;28;20093;-82
2021/05/17 10:05:22;;;;;;;0.52;0.40;;;;;;;14.90;57.19;98143.25;5033557;28;20053;-83
2021/05/17 10:07:51;;;;;;;2.38;0.88;;;;;;;15.33;56.33;98130.25;5016284;28;20052;-83
2021/05/17 10:10:20;;;;;;;4.75;0.60;;;;;;;15.30;53.34;98130.72;5017510;28;20053;-82
2021/05/17 10:12:47;;;;;;;4.32;0.40;;;;;;;14.92;54.82;98134.78;5033533;28;20176;-82
2021/05/17 10:15:15;;;;;;;1.75;0.60;;;;;;;14.86;55.55;98131.13;5036014;28;20051;-82
2021/05/17 10:17:43;;;;;;;2.67;0.57;;;;;;;14.52;55.53;98139.84;5016044;28;20049;-82
2021/05/17 10:20:13;;;;;;;3.00;0.55;;;;;;;14.08;56.85;98141.19;5045757;28;20081;-82
2021/05/17 10:22:41;;;;;;;2.08;0.32;;;;;;;13.81;59.72;98153.31;5017215;28;20085;-81
2021/05/17 10:25:09;;;;;;;1.85;0.50;;;;;;;13.41;62.55;98158.44;5013840;28;20421;-81
2021/05/17 10:27:43;;;;;;;1.00;0.38;;;;;;;13.57;62.61;98146.06;5012506;28;20053;-80
2021/05/17 10:30:12;;;;;;;1.00;0.38;;;;;;;13.83;62.25;98144.06;5027672;28;20045;-81
2021/05/17 10:32:43;;;;;;;0.25;0.17;;;;;;;14.23;61.76;98151.69;5050401;28;20056;-81
2021/05/17 10:35:15;;;;;;;0.82;0.30;;;;;;;14.49;62.68;98136.75;5050348;28;20060;-81
2021/05/17 10:37:45;;;;;;;1.33;0.30;;;;;;;14.74;60.49;98135.75;5034283;28;20050;-81
2021/05/17 10:40:46;;;;;;;1.55;0.88;;;;;;;14.69;58.75;98133.72;5038923;28;20053;-82
2021/05/17 10:43:21;;;;;;;0.57;0.50;;;;;;;14.25;57.31;98109.38;4993457;28;20073;-81
2021/05/17 10:48:48;;;;;;;0.90;0.20;;;;;;;14.12;58.86;98125.97;4965783;28;20135;-82
2021/05/17 10:51:17;;;;;;;0.52;0.30;;;;;;;14.37;58.85;98139.47;5029018;28;20488;-82
2021/05/17 10:53:49;;;;;;;0.47;0.30;;;;;;;14.69;54.46;98139.19;5031212;28;20053;-82
2021/05/17 10:56:35;;;;;;;0.15;0.15;;;;;;;14.25;56.60;98152.28;5046424;28;20053;-82
2021/05/17 11:05:11;;;;;;;0.43;0.10;;;;;;;11.45;71.37;98203.63;5027050;28;20106;-82
2021/05/17 11:07:55;;;;;;;0.45;0.43;;;;;;;10.84;74.70;98215.69;5041652;28;20052;-82
2021/05/17 11:10:22;;;;;;;3.00;0.63;;;;;;;10.38;77.30;98195.56;5027515;28;20048;-81
2021/05/17 11:13:08;;;;;;;0.30;0.30;;;;;;;10.70;79.72;98212.09;5022428;28;20045;-82
2021/05/17 11:15:48;;;;;;;1.25;0.47;;;;;;;10.75;78.95;98222.38;5035473;28;20056;-82
2021/05/17 11:18:40;;;;;;;0.82;0.47;;;;;;;10.70;79.43;98203.13;5049548;28;20053;-83
2021/05/17 11:35:48;;;;;;;2.72;0.70;;;;;;;11.69;76.12;98207.50;4989171;28;20057;-83
2021/05/17 11:38:32;;;;;;;1.25;0.43;;;;;;;11.69;75.31;98190.34;4977065;28;20061;-83
2021/05/17 11:40:58;;;;;;;3.97;0.43;;;;;;;11.86;76.21;98180.66;5027655;28;20045;-83
2021/05/17 11:44:03;;;;;;;1.10;0.82;;;;;;;12.35;76.40;98183.72;5030241;28;20057;-83
2021/05/17 11:46:33;;;;;;;2.25;1.10;;;;;;;12.42;74.89;98177.38;5041620;28;20511;-83
2021/05/17 11:49:11;;;;;;;;;;;;;;;12.68;75.66;98190.81;5039512;28;20059;-82
2021/05/17 11:52:01;;;;;;;4.53;2.70;;;;;;;12.48;73.57;98180.06;5042263;28;19966;-83
2021/05/17 11:54:50;;;;;;;3.72;0.88;;;;;;;12.55;74.67;98183.56;5030202;28;20056;-83
2021/05/17 11:57:29;;;;;;;2.63;0.77;;;;;;;12.69;74.63;98188.91;5042197;28;20053;-82
2021/05/17 12:00:00;;;;;;;2.67;0.77;;;;;;;12.78;75.27;98190.34;5023152;28;20045;-81
2021/05/17 12:02:26;;;;;;;0.55;0.50;;;;;;;12.44;75.30;98188.94;5038590;28;20053;-81
2021/05/17 12:04:54;;;;;;;1.00;0.63;;;;;;;12.08;77.10;98180.34;5030012;28;20053;-81
2021/05/17 12:07:20;;;;;;;1.20;0.60;;;;;;;12.78;77.15;98187.59;5034011;28;20563;-81
2021/05/17 12:09:49;;;;;;;2.05;0.60;;;;;;;13.59;76.38;98193.09;5033577;28;20160;-81
2021/05/17 12:12:17;;;;;;;1.33;0.90;;;;;;;13.66;74.31;98190.31;5044367;28;20103;-81
2021/05/17 12:18:08;;;;;;;2.47;0.60;;;;;;;13.86;71.96;98168.19;5044573;28;20068;-82
2021/05/17 12:20:35;;;;;;;2.40;0.68;;;;;;;14.50;69.15;98182.19;5048007;28;20081;-82
2021/05/17 12:23:02;;;;;;;3.83;0.90;;;;;;;14.64;71.10;98178.19;5040623;28;20107;-81
2021/05/17 12:25:33;;;;;;;5.22;0.95;;;;;;;14.92;68.07;98178.56;5034635;28;20060;-81
2021/05/17 12:28:01;;;;;;;5.40;1.17;;;;;;;15.13;67.56;98172.53;5042417;28;20124;-82
2021/05/17 12:30:28;;;;;;;2.63;0.80;;;;;;;15.52;64.83;98180.19;5054122;28;20098;-81
2021/05/17 12:32:57;;;;;;;1.63;0.43;;;;;;;15.36;64.88;98170.84;5033829;28;20045;-82
2021/05/17 12:35:28;;;;;;;2.28;0.75;;;;;;;15.70;66.16;98171.84;5014256;28;20514;-82
2021/05/17 12:37:56;;;;;;;2.70;0.60;;;;;;;15.30;65.73;98163.59;5035642;28;20291;-81
2021/05/17 12:40:31;;;;;;;2.60;0.52;;;;;;;15.31;63.61;98174.31;5051893;28;20052;-81
2021/05/17 12:43:10;;;;;;;2.00;0.60;;;;;;;14.85;65.14;98179.53;5039522;28;20056;-81
2021/05/17 12:45:39;;;;;;;2.33;0.90;;;;;;;15.10;67.50;98175.75;5033701;28;20049;-82
2021/05/17 12:48:20;;;;;;;2.97;0.85;;;;;;;15.70;65.20;98157.28;5032679;28;20054;-81
2021/05/17 12:50:49;;;;;;;4.45;1.42;;;;;;;16.08;63.08;98170.41;5014081;28;20046;-82
2021/05/17 12:53:18;;;;;;;2.35;0.95;;;;;;;16.46;61.42;98160.69;5038066;28;20076;-82
2021/05/17 12:55:47;;;;;;;4.70;1.13;;;;;;;16.70;60.61;98168.78;5033655;28;20390;-81
2021/05/17 12:58:34;;;;;;;1.70;0.57;;;;;;;16.09;58.13;98149.31;5045691;28;20045;-83
2021/05/17 13:01:45;;;;;;;1.83;0.45;;;;;;;15.55;63.17;98166.88;5031527;28;20045;-83
2021/05/17 13:04:22;;;;;;;2.42;0.88;;;;;;;15.10;63.20;98169.41;5041478;28;20048;-83
2021/05/17 13:06:48;;;;;;;1.58;0.32;;;;;;;14.41;65.20;98165.28;5055402;28;20095;-83
2021/05/17 13:10:03;;;;;;;0.60;0.30;;;;;;;14.21;67.27;98184.72;5028835;28;20065;-82
2021/05/17 13:12:53;;;;;;;2.55;1.70;;;;;;;14.07;63.36;98173.13;5019991;28;20045;-81
2021/05/17 13:15:21;;;;;;;6.78;2.72;;;;;;;14.77;63.55;98168.09;5018356;28;20073;-81
2021/05/17 13:18:06;;;;;;;34.55;12.45;;;;;;;15.04;60.55;98182.19;5019926;28;20128;-82
2021/05/17 13:20:33;;;;;;;37.20;13.32;;;;;;;15.21;59.86;98183.09;5026624;28;20140;-82